sensor_id;sensor_type;location;lat;lon;timestamp;pressure;altitude;pressure_sealevel;temperature;humidity
24230;BME280;12362;50.004;8.006;2023-01-30T00:01:33;101297.28;;;1.71;100.00
24230;BME280;12362;50.004;8.006;2023-01-30T00:03:59;101295.59;;;1.77;100.00
24230;BME280;12362;50.004;8.006;2023-01-30T00:06:25;101293.88;;;1.85;100.00
24230;BME280;12362;50.004;8.006;2023-01-30T00:08:51;101298.16;;;1.86;100.00
24230;BME280;12362;50.004;8.006;2023-01-30T00:11:18;101294.72;;;1.87;100.00
24230;BME280;12362;50.004;8.006;2023-01-30T00:13:45;101292.16;;;1.81;100.00
24230;BME280;12362;50.004;8.006;2023-01-30T00:16:11;101284.47;;;1.79;100.00
24230;BME280;12362;50.004;8.006;2023-01-30T00:18:38;101259.75;;;1.74;100.00
24230;BME280;12362;50.004;8.006;2023-01-30T00:21:06;101260.59;;;1.73;100.00
24230;BME280;12362;50.004;8.006;2023-01-30T00:23:33;101246.94;;;1.76;100.00
24230;BME280;12362;50.004;8.006;2023-01-30T00:25:59;101234.16;;;1.78;100.00
24230;BME280;12362;50.004;8.006;2023-01-30T00:28:25;101217.94;;;1.71;100.00
24230;BME280;12362;50.004;8.006;2023-01-30T00:30:52;101205.97;;;1.73;100.00
24230;BME280;12362;50.004;8.006;2023-01-30T00:33:20;101217.94;;;1.69;100.00
24230;BME280;12362;50.004;8.006;2023-01-30T00:35:47;101202.59;;;1.72;100.00
24230;BME280;12362;50.004;8.006;2023-01-30T00:38:13;101208.56;;;1.77;100.00
24230;BME280;12362;50.004;8.006;2023-01-30T00:40:40;101229.00;;;1.73;100.00
24230;BME280;12362;50.004;8.006;2023-01-30T00:43:06;101232.44;;;1.73;100.00
24230;BME280;12362;50.004;8.006;2023-01-30T00:45:52;101219.66;;;1.72;100.00
24230;BME280;12362;50.004;8.006;2023-01-30T00:48:36;101221.34;;;1.76;100.00
24230;BME280;12362;50.004;8.006;2023-01-30T00:51:02;101212.81;;;1.75;100.00
24230;BME280;12362;50.004;8.006;2023-01-30T00:53:28;101217.94;;;1.79;100.00
24230;BME280;12362;50.004;8.006;2023-01-30T00:55:54;101217.94;;;1.77;100.00
24230;BME280;12362;50.004;8.006;2023-01-30T00:58:32;101224.75;;;1.80;100.00
24230;BME280;12362;50.004;8.006;2023-01-30T01:00:58;101221.34;;;1.86;100.00
24230;BME280;12362;50.004;8.006;2023-01-30T01:03:24;101211.94;;;1.89;100.00
24230;BME280;12362;50.004;8.006;2023-01-30T01:05:49;101207.69;;;1.88;100.00
24230;BME280;12362;50.004;8.006;2023-01-30T01:08:15;101212.81;;;1.81;100.00
24230;BME280;12362;50.004;8.006;2023-01-30T01:10:41;101200.88;;;1.86;100.00
24230;BME280;12362;50.004;8.006;2023-01-30T01:13:06;101203.44;;;1.89;100.00
24230;BME280;12362;50.004;8.006;2023-01-30T01:15:33;101200.88;;;1.86;100.00
24230;BME280;12362;50.004;8.006;2023-01-30T01:17:59;101194.88;;;1.88;100.00
24230;BME280;12362;50.004;8.006;2023-01-30T01:20:25;101171.00;;;1.88;100.00
24230;BME280;12362;50.004;8.006;2023-01-30T01:22:54;101165.88;;;1.88;100.00
24230;BME280;12362;50.004;8.006;2023-01-30T01:25:21;101165.03;;;1.89;100.00
24230;BME280;12362;50.004;8.006;2023-01-30T01:27:47;101170.97;;;1.91;100.00
24230;BME280;12362;50.004;8.006;2023-01-30T01:30:15;101177.81;;;1.93;100.00
24230;BME280;12362;50.004;8.006;2023-01-30T01:32:42;101165.88;;;1.89;100.00
24230;BME280;12362;50.004;8.006;2023-01-30T01:35:08;101170.13;;;1.90;100.00
24230;BME280;12362;50.004;8.006;2023-01-30T01:37:34;101167.59;;;1.93;100.00
24230;BME280;12362;50.004;8.006;2023-01-30T01:39:59;101174.38;;;1.97;100.00
24230;BME280;12362;50.004;8.006;2023-01-30T01:42:43;101161.59;;;1.99;100.00
24230;BME280;12362;50.004;8.006;2023-01-30T01:48:05;101162.44;;;1.95;100.00
24230;BME280;12362;50.004;8.006;2023-01-30T01:53:42;101153.06;;;1.94;100.00
24230;BME280;12362;50.004;8.006;2023-01-30T01:56:11;101140.25;;;1.95;100.00
24230;BME280;12362;50.004;8.006;2023-01-30T01:58:46;101148.78;;;1.97;100.00
24230;BME280;12362;50.004;8.006;2023-01-30T02:01:16;101142.81;;;1.95;100.00
24230;BME280;12362;50.004;8.006;2023-01-30T02:03:48;101137.69;;;1.98;100.00
24230;BME280;12362;50.004;8.006;2023-01-30T02:06:17;101117.19;;;1.98;100.00
24230;BME280;12362;50.004;8.006;2023-01-30T02:08:48;101112.09;;;1.98;100.00
24230;BME280;12362;50.004;8.006;2023-01-30T02:11:28;101106.97;;;1.97;100.00
24230;BME280;12362;50.004;8.006;2023-01-30T02:13:56;101108.66;;;1.99;100.00
24230;BME280;12362;50.004;8.006;2023-01-30T02:16:24;101105.25;;;2.03;100.00
24230;BME280;12362;50.004;8.006;2023-01-30T02:18:50;101110.34;;;2.05;100.00
24230;BME280;12362;50.004;8.006;2023-01-30T02:21:59;101118.03;;;2.08;100.00
24230;BME280;12362;50.004;8.006;2023-01-30T02:30:20;101107.81;;;1.99;100.00
24230;BME280;12362;50.004;8.006;2023-01-30T02:35:45;101111.19;;;2.11;100.00
24230;BME280;12362;50.004;8.006;2023-01-30T02:38:26;101102.66;;;2.12;100.00
24230;BME280;12362;50.004;8.006;2023-01-30T02:44:05;101089.00;;;2.12;100.00
24230;BME280;12362;50.004;8.006;2023-01-30T02:46:42;101095.84;;;2.10;100.00
24230;BME280;12362;50.004;8.006;2023-01-30T02:49:33;101093.25;;;2.08;100.00
24230;BME280;12362;50.004;8.006;2023-01-30T02:52:02;101085.56;;;2.11;100.00
24230;BME280;12362;50.004;8.006;2023-01-30T02:54:28;101088.13;;;2.14;100.00
24230;BME280;12362;50.004;8.006;2023-01-30T02:56:57;101092.41;;;2.12;100.00
24230;BME280;12362;50.004;8.006;2023-01-30T02:59:38;101081.31;;;2.12;100.00
24230;BME280;12362;50.004;8.006;2023-01-30T03:02:23;101089.00;;;2.10;100.00
24230;BME280;12362;50.004;8.006;2023-01-30T03:05:23;101086.38;;;2.19;100.00
24230;BME280;12362;50.004;8.006;2023-01-30T03:10:52;101106.91;;;2.21;100.00
24230;BME280;12362;50.004;8.006;2023-01-30T03:16:20;101095.78;;;2.25;100.00
24230;BME280;12362;50.004;8.006;2023-01-30T03:18:48;101093.19;;;2.28;100.00
24230;BME280;12362;50.004;8.006;2023-01-30T03:21:16;101080.38;;;2.28;100.00
24230;BME280;12362;50.004;8.006;2023-01-30T03:23:45;101070.13;;;2.31;100.00
24230;BME280;12362;50.004;8.006;2023-01-30T03:26:17;101060.72;;;2.31;100.00
24230;BME280;12362;50.004;8.006;2023-01-30T03:29:18;101071.81;;;2.33;100.00
24230;BME280;12362;50.004;8.006;2023-01-30T03:31:44;101072.69;;;2.37;100.00
24230;BME280;12362;50.004;8.006;2023-01-30T03:34:09;101075.25;;;2.37;100.00
24230;BME280;12362;50.004;8.006;2023-01-30T03:36:35;101064.13;;;2.39;100.00
24230;BME280;12362;50.004;8.006;2023-01-30T03:39:00;101052.13;;;2.40;100.00
24230;BME280;12362;50.004;8.006;2023-01-30T03:41:26;101052.13;;;2.40;100.00
24230;BME280;12362;50.004;8.006;2023-01-30T03:43:52;101042.72;;;2.45;100.00
24230;BME280;12362;50.004;8.006;2023-01-30T03:46:18;101059.81;;;2.49;100.00
24230;BME280;12362;50.004;8.006;2023-01-30T03:48:44;101055.47;;;2.54;100.00
24230;BME280;12362;50.004;8.006;2023-01-30T03:51:11;101059.78;;;2.50;100.00
24230;BME280;12362;50.004;8.006;2023-01-30T03:53:37;101044.34;;;2.56;100.00
24230;BME280;12362;50.004;8.006;2023-01-30T03:56:03;101048.63;;;2.56;100.00
24230;BME280;12362;50.004;8.006;2023-01-30T03:58:30;101058.84;;;2.60;100.00
24230;BME280;12362;50.004;8.006;2023-01-30T04:00:58;101044.31;;;2.65;100.00
24230;BME280;12362;50.004;8.006;2023-01-30T04:03:24;101042.56;;;2.68;100.00
24230;BME280;12362;50.004;8.006;2023-01-30T04:05:53;101031.47;;;2.69;100.00
24230;BME280;12362;50.004;8.006;2023-01-30T04:08:18;101018.69;;;2.65;100.00
24230;BME280;12362;50.004;8.006;2023-01-30T04:10:45;101015.28;;;2.62;100.00
24230;BME280;12362;50.004;8.006;2023-01-30T04:13:12;101015.31;;;2.59;100.00
24230;BME280;12362;50.004;8.006;2023-01-30T04:15:37;101022.16;;;2.57;100.00
24230;BME280;12362;50.004;8.006;2023-01-30T04:18:29;101016.13;;;2.62;100.00
24230;BME280;12362;50.004;8.006;2023-01-30T04:21:04;101001.59;;;2.63;100.00
24230;BME280;12362;50.004;8.006;2023-01-30T04:23:34;101000.69;;;2.68;100.00
24230;BME280;12362;50.004;8.006;2023-01-30T04:26:02;100996.44;;;2.68;100.00
24230;BME280;12362;50.004;8.006;2023-01-30T04:28:27;100996.44;;;2.71;100.00
24230;BME280;12362;50.004;8.006;2023-01-30T04:30:53;100990.41;;;2.72;100.00
24230;BME280;12362;50.004;8.006;2023-01-30T04:33:34;100986.19;;;2.68;100.00
24230;BME280;12362;50.004;8.006;2023-01-30T04:36:03;100968.22;;;2.71;100.00
24230;BME280;12362;50.004;8.006;2023-01-30T04:38:30;100966.53;;;2.67;100.00
24230;BME280;12362;50.004;8.006;2023-01-30T04:40:57;100960.56;;;2.68;100.00
24230;BME280;12362;50.004;8.006;2023-01-30T04:43:26;100960.53;;;2.71;100.00
24230;BME280;12362;50.004;8.006;2023-01-30T04:45:55;100940.03;;;2.70;100.00
24230;BME280;12362;50.004;8.006;2023-01-30T04:48:22;100946.88;;;2.68;100.00
24230;BME280;12362;50.004;8.006;2023-01-30T04:50:51;100933.16;;;2.73;100.00
24230;BME280;12362;50.004;8.006;2023-01-30T04:53:18;100934.03;;;2.71;100.00
24230;BME280;12362;50.004;8.006;2023-01-30T04:55:44;100928.97;;;2.67;100.00
24230;BME280;12362;50.004;8.006;2023-01-30T04:58:09;100937.50;;;2.66;100.00
24230;BME280;12362;50.004;8.006;2023-01-30T05:00:35;100939.25;;;2.61;100.00
24230;BME280;12362;50.004;8.006;2023-01-30T05:03:02;100932.47;;;2.57;100.00
24230;BME280;12362;50.004;8.006;2023-01-30T05:05:27;100932.41;;;2.63;100.00
24230;BME280;12362;50.004;8.006;2023-01-30T05:07:53;100928.19;;;2.59;100.00
24230;BME280;12362;50.004;8.006;2023-01-30T05:10:19;100908.50;;;2.62;100.00
24230;BME280;12362;50.004;8.006;2023-01-30T05:12:45;100910.13;;;2.69;100.00
24230;BME280;12362;50.004;8.006;2023-01-30T05:15:12;100916.97;;;2.70;100.00
24230;BME280;12362;50.004;8.006;2023-01-30T05:17:38;100914.41;;;2.71;100.00
24230;BME280;12362;50.004;8.006;2023-01-30T05:20:04;100915.25;;;2.69;100.00
24230;BME280;12362;50.004;8.006;2023-01-30T05:22:31;100910.13;;;2.69;100.00
24230;BME280;12362;50.004;8.006;2023-01-30T05:24:56;100911.84;;;2.71;100.00
24230;BME280;12362;50.004;8.006;2023-01-30T05:27:37;100908.38;;;2.75;100.00
24230;BME280;12362;50.004;8.006;2023-01-30T05:30:03;100905.81;;;2.77;100.00
24230;BME280;12362;50.004;8.006;2023-01-30T05:32:28;100906.66;;;2.76;100.00
24230;BME280;12362;50.004;8.006;2023-01-30T05:34:55;100898.09;;;2.78;100.00
24230;BME280;12362;50.004;8.006;2023-01-30T05:37:20;100892.94;;;2.81;100.00
24230;BME280;12362;50.004;8.006;2023-01-30T05:39:46;100898.00;;;2.86;100.00
24230;BME280;12362;50.004;8.006;2023-01-30T05:42:12;100887.78;;;2.83;100.00
24230;BME280;12362;50.004;8.006;2023-01-30T05:44:38;100892.84;;;2.87;100.00
24230;BME280;12362;50.004;8.006;2023-01-30T05:47:04;100889.47;;;2.84;100.00
24230;BME280;12362;50.004;8.006;2023-01-30T05:49:29;100886.03;;;2.88;100.00
24230;BME280;12362;50.004;8.006;2023-01-30T05:51:55;100886.91;;;2.84;100.00
24230;BME280;12362;50.004;8.006;2023-01-30T05:54:21;100871.50;;;2.90;100.00
24230;BME280;12362;50.004;8.006;2023-01-30T05:56:50;100880.06;;;2.86;100.00
24230;BME280;12362;50.004;8.006;2023-01-30T05:59:16;100876.66;;;2.87;100.00
24230;BME280;12362;50.004;8.006;2023-01-30T06:01:43;100879.19;;;2.85;100.00
24230;BME280;12362;50.004;8.006;2023-01-30T06:04:09;100885.22;;;2.83;100.00
24230;BME280;12362;50.004;8.006;2023-01-30T06:06:34;100879.28;;;2.79;100.00
24230;BME280;12362;50.004;8.006;2023-01-30T06:09:00;100876.63;;;2.85;100.00
24230;BME280;12362;50.004;8.006;2023-01-30T06:11:26;100875.78;;;2.88;100.00
24230;BME280;12362;50.004;8.006;2023-01-30T06:13:52;100879.19;;;2.85;100.00
24230;BME280;12362;50.004;8.006;2023-01-30T06:16:18;100875.75;;;2.89;100.00
24230;BME280;12362;50.004;8.006;2023-01-30T06:18:45;100876.56;;;2.93;100.00
24230;BME280;12362;50.004;8.006;2023-01-30T06:21:14;100862.06;;;2.90;100.00
24230;BME280;12362;50.004;8.006;2023-01-30T06:23:40;100862.06;;;2.90;100.00
24230;BME280;12362;50.004;8.006;2023-01-30T06:26:07;100859.53;;;2.87;100.00
24230;BME280;12362;50.004;8.006;2023-01-30T06:28:32;100857.78;;;2.91;100.00
24230;BME280;12362;50.004;8.006;2023-01-30T06:30:58;100874.91;;;2.89;100.00
24230;BME280;12362;50.004;8.006;2023-01-30T06:33:24;100874.91;;;2.89;100.00
24230;BME280;12362;50.004;8.006;2023-01-30T06:35:50;100860.31;;;2.95;100.00
24230;BME280;12362;50.004;8.006;2023-01-30T06:38:17;100867.16;;;2.92;100.00
24230;BME280;12362;50.004;8.006;2023-01-30T06:40:44;100869.81;;;2.84;100.00
24230;BME280;12362;50.004;8.006;2023-01-30T06:43:10;100872.38;;;2.86;100.00
24230;BME280;12362;50.004;8.006;2023-01-30T06:45:35;100887.78;;;2.83;100.00
24230;BME280;12362;50.004;8.006;2023-01-30T06:48:01;100882.63;;;2.86;100.00
24230;BME280;12362;50.004;8.006;2023-01-30T06:50:28;100885.19;;;2.84;100.00
24230;BME280;12362;50.004;8.006;2023-01-30T06:52:55;100889.50;;;2.81;100.00
24230;BME280;12362;50.004;8.006;2023-01-30T06:55:24;100896.28;;;2.86;100.00
24230;BME280;12362;50.004;8.006;2023-01-30T06:58:10;100887.00;;;2.78;100.00
24230;BME280;12362;50.004;8.006;2023-01-30T07:00:37;100891.22;;;2.79;100.00
24230;BME280;12362;50.004;8.006;2023-01-30T07:03:08;100883.53;;;2.80;100.00
24230;BME280;12362;50.004;8.006;2023-01-30T07:05:37;100896.38;;;2.80;100.00
24230;BME280;12362;50.004;8.006;2023-01-30T07:08:03;100899.75;;;2.84;100.00
24230;BME280;12362;50.004;8.006;2023-01-30T07:10:28;100898.91;;;2.82;100.00
24230;BME280;12362;50.004;8.006;2023-01-30T07:12:57;100898.00;;;2.84;100.00
24230;BME280;12362;50.004;8.006;2023-01-30T07:15:22;100899.75;;;2.82;100.00
24230;BME280;12362;50.004;8.006;2023-01-30T07:17:48;100921.06;;;2.89;100.00
24230;BME280;12362;50.004;8.006;2023-01-30T07:20:14;100921.88;;;2.91;100.00
24230;BME280;12362;50.004;8.006;2023-01-30T07:22:39;100917.56;;;2.96;100.00
24230;BME280;12362;50.004;8.006;2023-01-30T07:25:06;100896.16;;;2.98;100.00
24230;BME280;12362;50.004;8.006;2023-01-30T07:27:32;100908.94;;;3.04;100.00
24230;BME280;12362;50.004;8.006;2023-01-30T07:29:58;100918.28;;;3.10;100.00
24230;BME280;12362;50.004;8.006;2023-01-30T07:32:24;100909.72;;;3.11;100.00
24230;BME280;12362;50.004;8.006;2023-01-30T07:34:49;100905.44;;;3.11;100.00
24230;BME280;12362;50.004;8.006;2023-01-30T07:37:15;100903.75;;;3.09;100.00
24230;BME280;12362;50.004;8.006;2023-01-30T07:39:41;100907.94;;;3.16;100.00
24230;BME280;12362;50.004;8.006;2023-01-30T07:42:06;100907.09;;;3.18;100.00
24230;BME280;12362;50.004;8.006;2023-01-30T07:44:33;100922.41;;;3.21;100.00
24230;BME280;12362;50.004;8.006;2023-01-30T07:46:59;100923.28;;;3.20;100.00
24230;BME280;12362;50.004;8.006;2023-01-30T07:49:33;100916.47;;;3.19;100.00
24230;BME280;12362;50.004;8.006;2023-01-30T07:51:58;100925.88;;;3.19;100.00
24230;BME280;12362;50.004;8.006;2023-01-30T07:54:24;100924.09;;;3.25;100.00
24230;BME280;12362;50.004;8.006;2023-01-30T07:56:51;100904.41;;;3.26;100.00
24230;BME280;12362;50.004;8.006;2023-01-30T08:02:35;100911.06;;;3.43;100.00
24230;BME280;12362;50.004;8.006;2023-01-30T08:05:01;100904.94;;;3.52;100.00
24230;BME280;12362;50.004;8.006;2023-01-30T08:07:26;100900.66;;;3.55;100.00
24230;BME280;12362;50.004;8.006;2023-01-30T08:09:52;100885.22;;;3.57;100.00
24230;BME280;12362;50.004;8.006;2023-01-30T08:12:19;100880.88;;;3.60;100.00
24230;BME280;12362;50.004;8.006;2023-01-30T08:14:44;100878.25;;;3.64;100.00
24230;BME280;12362;50.004;8.006;2023-01-30T08:17:10;100883.41;;;3.64;100.00
24230;BME280;12362;50.004;8.006;2023-01-30T08:19:39;100874.84;;;3.64;100.00
24230;BME280;12362;50.004;8.006;2023-01-30T08:22:05;100880.75;;;3.69;100.00
24230;BME280;12362;50.004;8.006;2023-01-30T08:24:30;100861.13;;;3.66;100.00
24230;BME280;12362;50.004;8.006;2023-01-30T08:27:01;100862.72;;;3.73;100.00
24230;BME280;12362;50.004;8.006;2023-01-30T08:29:39;100880.69;;;3.75;100.00
24230;BME280;12362;50.004;8.006;2023-01-30T08:32:06;100880.66;;;3.78;100.00
24230;BME280;12362;50.004;8.006;2023-01-30T08:34:44;100873.63;;;3.90;100.00
24230;BME280;12362;50.004;8.006;2023-01-30T08:37:26;100873.59;;;3.92;100.00
24230;BME280;12362;50.004;8.006;2023-01-30T08:40:06;100886.38;;;3.95;100.00
24230;BME280;12362;50.004;8.006;2023-01-30T08:42:32;100888.06;;;3.99;100.00
24230;BME280;12362;50.004;8.006;2023-01-30T08:45:09;100894.81;;;4.04;100.00
24230;BME280;12362;50.004;8.006;2023-01-30T08:47:56;100889.72;;;4.01;100.00
24230;BME280;12362;50.004;8.006;2023-01-30T08:50:36;100879.34;;;4.09;100.00
24230;BME280;12362;50.004;8.006;2023-01-30T08:53:10;100872.53;;;4.05;100.00
24230;BME280;12362;50.004;8.006;2023-01-30T08:55:55;100870.84;;;4.05;100.00
24230;BME280;12362;50.004;8.006;2023-01-30T08:58:48;100868.16;;;4.11;100.00
24230;BME280;12362;50.004;8.006;2023-01-30T09:01:20;100864.72;;;4.12;100.00
24230;BME280;12362;50.004;8.006;2023-01-30T09:03:53;100853.47;;;4.21;100.00
24230;BME280;12362;50.004;8.006;2023-01-30T09:06:24;100849.09;;;4.26;100.00
24230;BME280;12362;50.004;8.006;2023-01-30T09:08:58;100849.81;;;4.34;100.00
24230;BME280;12362;50.004;8.006;2023-01-30T09:11:43;100837.06;;;4.28;100.00
24230;BME280;12362;50.004;8.006;2023-01-30T09:14:39;100836.94;;;4.37;100.00
24230;BME280;12362;50.004;8.006;2023-01-30T09:17:21;100854.59;;;4.54;100.00
24230;BME280;12362;50.004;8.006;2023-01-30T09:20:04;100852.94;;;4.52;100.00
24230;BME280;12362;50.004;8.006;2023-01-30T09:22:54;100855.25;;;4.67;100.00
24230;BME280;12362;50.004;8.006;2023-01-30T09:28:55;100842.13;;;4.80;100.00
24230;BME280;12362;50.004;8.006;2023-01-30T09:31:34;100852.09;;;4.97;100.00
24230;BME280;12362;50.004;8.006;2023-01-30T09:34:27;100845.00;;;5.08;100.00
24230;BME280;12362;50.004;8.006;2023-01-30T09:37:01;100832.91;;;5.13;100.00
24230;BME280;12362;50.004;8.006;2023-01-30T09:39:28;100838.03;;;5.14;100.00
24230;BME280;12362;50.004;8.006;2023-01-30T09:51:44;100841.75;;;5.42;100.00
24230;BME280;12362;50.004;8.006;2023-01-30T09:54:42;100847.06;;;5.33;100.00
24230;BME280;12362;50.004;8.006;2023-01-30T09:57:29;100844.16;;;5.49;100.00
24230;BME280;12362;50.004;8.006;2023-01-30T10:03:38;100846.53;;;5.58;100.00
24230;BME280;12362;50.004;8.006;2023-01-30T10:06:13;100833.81;;;5.51;100.00
24230;BME280;12362;50.004;8.006;2023-01-30T10:10:06;100834.59;;;5.54;100.00
24230;BME280;12362;50.004;8.006;2023-01-30T10:31:57;100826.69;;;6.01;100.00
24230;BME280;12362;50.004;8.006;2023-01-30T10:35:12;100819.41;;;5.82;100.00
24230;BME280;12362;50.004;8.006;2023-01-30T10:38:25;100812.47;;;5.85;100.00
24230;BME280;12362;50.004;8.006;2023-01-30T10:41:31;100811.97;;;6.05;100.00
24230;BME280;12362;50.004;8.006;2023-01-30T10:44:19;100790.19;;;6.51;100.00
24230;BME280;12362;50.004;8.006;2023-01-30T10:50:55;100790.28;;;6.80;100.00
24230;BME280;12362;50.004;8.006;2023-01-30T10:56:01;100786.66;;;7.16;100.00
24230;BME280;12362;50.004;8.006;2023-01-30T10:58:48;100784.53;;;6.99;100.00
24230;BME280;12362;50.004;8.006;2023-01-30T11:01:24;100778.06;;;7.15;100.00
24230;BME280;12362;50.004;8.006;2023-01-30T11:07:25;100773.75;;;7.16;100.00
24230;BME280;12362;50.004;8.006;2023-01-30T11:13:16;100779.81;;;7.13;100.00
24230;BME280;12362;50.004;8.006;2023-01-30T11:16:08;100782.53;;;7.09;100.00
24230;BME280;12362;50.004;8.006;2023-01-30T11:18:50;100781.53;;;7.14;100.00
24230;BME280;12362;50.004;8.006;2023-01-30T11:21:30;100767.19;;;7.04;100.00
24230;BME280;12362;50.004;8.006;2023-01-30T11:24:22;100786.00;;;7.09;100.00
24230;BME280;12362;50.004;8.006;2023-01-30T11:27:50;100776.34;;;7.14;100.00
24230;BME280;12362;50.004;8.006;2023-01-30T11:30:39;100783.75;;;6.97;100.00
24230;BME280;12362;50.004;8.006;2023-01-30T11:33:34;100787.88;;;6.72;100.00
24230;BME280;12362;50.004;8.006;2023-01-30T11:36:47;100795.78;;;6.66;100.00
24230;BME280;12362;50.004;8.006;2023-01-30T11:39:37;100796.09;;;6.56;100.00
24230;BME280;12362;50.004;8.006;2023-01-30T11:42:33;100783.81;;;6.64;100.00
24230;BME280;12362;50.004;8.006;2023-01-30T11:45:23;100792.16;;;6.73;100.00
24230;BME280;12362;50.004;8.006;2023-01-30T11:48:22;100790.94;;;6.54;100.00
24230;BME280;12362;50.004;8.006;2023-01-30T11:51:03;100806.72;;;6.76;100.00
24230;BME280;12362;50.004;8.006;2023-01-30T11:53:42;100814.44;;;6.76;100.00
24230;BME280;12362;50.004;8.006;2023-01-30T11:56:27;100814.75;;;6.96;100.00
24230;BME280;12362;50.004;8.006;2023-01-30T11:59:34;100810.31;;;7.01;100.00
24230;BME280;12362;50.004;8.006;2023-01-30T12:02:20;100817.19;;;7.00;100.00
24230;BME280;12362;50.004;8.006;2023-01-30T12:04:50;100812.22;;;7.24;100.00
24230;BME280;12362;50.004;8.006;2023-01-30T12:07:35;100799.63;;;7.70;100.00
24230;BME280;12362;50.004;8.006;2023-01-30T12:10:24;100801.09;;;7.51;100.00
24230;BME280;12362;50.004;8.006;2023-01-30T12:12:58;100797.19;;;7.08;100.00
24230;BME280;12362;50.004;8.006;2023-01-30T12:15:37;100791.25;;;7.05;100.00
24230;BME280;12362;50.004;8.006;2023-01-30T12:21:10;100787.97;;;7.00;100.00
24230;BME280;12362;50.004;8.006;2023-01-30T12:23:47;100771.75;;;6.95;100.00
24230;BME280;12362;50.004;8.006;2023-01-30T12:26:25;100752.25;;;7.70;100.00
24230;BME280;12362;50.004;8.006;2023-01-30T12:29:26;100742.88;;;7.93;100.00
24230;BME280;12362;50.004;8.006;2023-01-30T12:35:28;100743.56;;;8.24;100.00
24230;BME280;12362;50.004;8.006;2023-01-30T13:09:16;100753.09;;;8.48;100.00
24230;BME280;12362;50.004;8.006;2023-01-30T13:12:26;100763.13;;;7.79;100.00
24230;BME280;12362;50.004;8.006;2023-01-30T13:15:20;100756.72;;;7.65;100.00
24230;BME280;12362;50.004;8.006;2023-01-30T13:17:55;100774.16;;;7.58;100.00
24230;BME280;12362;50.004;8.006;2023-01-30T13:21:14;100771.44;;;7.63;100.00
24230;BME280;12362;50.004;8.006;2023-01-30T13:26:42;100777.16;;;7.72;100.00
24230;BME280;12362;50.004;8.006;2023-01-30T13:29:53;100780.19;;;7.85;100.00
24230;BME280;12362;50.004;8.006;2023-01-30T13:33:05;100782.44;;;8.22;100.00
24230;BME280;12362;50.004;8.006;2023-01-30T13:38:33;100788.50;;;7.94;100.00
24230;BME280;12362;50.004;8.006;2023-01-30T13:41:02;100775.94;;;8.35;100.00
24230;BME280;12362;50.004;8.006;2023-01-30T13:43:29;100779.28;;;8.39;100.00
24230;BME280;12362;50.004;8.006;2023-01-30T13:45:57;100779.44;;;8.34;100.00
24230;BME280;12362;50.004;8.006;2023-01-30T13:48:41;100785.25;;;8.65;100.00
24230;BME280;12362;50.004;8.006;2023-01-30T13:51:26;100783.88;;;8.31;100.00
24230;BME280;12362;50.004;8.006;2023-01-30T14:01:17;100799.31;;;7.81;100.00
24230;BME280;12362;50.004;8.006;2023-01-30T14:07:27;100795.56;;;7.89;100.00
24230;BME280;12362;50.004;8.006;2023-01-30T14:10:16;100803.53;;;7.82;100.00
24230;BME280;12362;50.004;8.006;2023-01-30T14:13:02;100807.06;;;7.81;100.00
24230;BME280;12362;50.004;8.006;2023-01-30T14:15:33;100813.69;;;8.16;100.00
24230;BME280;12362;50.004;8.006;2023-01-30T14:18:28;100799.19;;;8.11;100.00
24230;BME280;12362;50.004;8.006;2023-01-30T14:23:36;100798.50;;;8.56;100.00
24230;BME280;12362;50.004;8.006;2023-01-30T14:26:02;100785.13;;;8.68;100.00
24230;BME280;12362;50.004;8.006;2023-01-30T14:28:45;100806.59;;;8.47;100.00
24230;BME280;12362;50.004;8.006;2023-01-30T14:31:11;100799.06;;;8.40;100.00
24230;BME280;12362;50.004;8.006;2023-01-30T14:46:44;100884.22;;;7.64;100.00
24230;BME280;12362;50.004;8.006;2023-01-30T14:48:55;100892.19;;;7.58;100.00
24230;BME280;12362;50.004;8.006;2023-01-30T14:51:53;100904.09;;;7.31;100.00
24230;BME280;12362;50.004;8.006;2023-01-30T14:54:32;100907.22;;;7.12;100.00
24230;BME280;12362;50.004;8.006;2023-01-30T14:57:28;100904.63;;;7.12;100.00
24230;BME280;12362;50.004;8.006;2023-01-30T15:00:43;100918.50;;;7.10;100.00
24230;BME280;12362;50.004;8.006;2023-01-30T15:03:33;100920.00;;;7.17;100.00
24230;BME280;12362;50.004;8.006;2023-01-30T15:06:10;100931.31;;;7.13;100.00
24230;BME280;12362;50.004;8.006;2023-01-30T15:08:40;100936.63;;;7.07;100.00
24230;BME280;12362;50.004;8.006;2023-01-30T15:11:17;100937.50;;;7.06;100.00
24230;BME280;12362;50.004;8.006;2023-01-30T15:14:05;100948.59;;;7.11;100.00
24230;BME280;12362;50.004;8.006;2023-01-30T15:19:45;100938.56;;;7.30;100.00
24230;BME280;12362;50.004;8.006;2023-01-30T15:23:16;100942.28;;;7.22;100.00
24230;BME280;12362;50.004;8.006;2023-01-30T15:25:42;100954.50;;;7.14;100.00
24230;BME280;12362;50.004;8.006;2023-01-30T15:31:20;100948.31;;;7.21;100.00
24230;BME280;12362;50.004;8.006;2023-01-30T15:33:49;100957.16;;;7.13;100.00
24230;BME280;12362;50.004;8.006;2023-01-30T15:36:32;100958.97;;;7.09;100.00
24230;BME280;12362;50.004;8.006;2023-01-30T15:39:18;100963.50;;;7.00;100.00
24230;BME280;12362;50.004;8.006;2023-01-30T15:41:44;100972.06;;;7.02;100.00
24230;BME280;12362;50.004;8.006;2023-01-30T15:50:38;100958.78;;;6.82;100.00
24230;BME280;12362;50.004;8.006;2023-01-30T15:53:35;100967.75;;;6.69;100.00
24230;BME280;12362;50.004;8.006;2023-01-30T15:56:18;100983.38;;;6.61;100.00
24230;BME280;12362;50.004;8.006;2023-01-30T15:59:01;100984.28;;;6.60;100.00
24230;BME280;12362;50.004;8.006;2023-01-30T16:01:32;100988.44;;;6.66;100.00
24230;BME280;12362;50.004;8.006;2023-01-30T16:04:26;100988.38;;;6.67;100.00
24230;BME280;12362;50.004;8.006;2023-01-30T16:07:26;100987.72;;;6.59;100.00